createdAt,value
2017-08-06T00:00:37.579Z,99.99
2017-08-06T00:01:47.859Z,99.99
2017-08-06T00:02:58.383Z,99.99
2017-08-06T00:04:08.658Z,99.99
2017-08-06T00:05:18.944Z,99.99
2017-08-06T00:06:28.914Z,99.99
2017-08-06T00:07:38.887Z,99.99
2017-08-06T00:08:48.793Z,99.99
2017-08-06T00:09:59.077Z,99.99
2017-08-06T00:11:09.363Z,99.99
2017-08-06T00:12:19.661Z,99.99
2017-08-06T00:13:29.942Z,99.99
2017-08-06T00:14:40.469Z,99.99
2017-08-06T00:15:50.430Z,99.99
2017-08-06T00:17:00.101Z,99.99
2017-08-06T00:18:10.058Z,99.99
2017-08-06T00:19:19.741Z,99.99
2017-08-06T00:20:30.267Z,99.99
2017-08-06T00:21:40.550Z,99.99
2017-08-06T00:22:50.527Z,99.99
2017-08-06T00:24:00.500Z,99.99
2017-08-06T00:25:10.780Z,99.99
2017-08-06T00:26:21.325Z,99.99
2017-08-06T00:27:31.290Z,99.99
2017-08-06T00:28:41.250Z,99.99
2017-08-06T00:29:51.527Z,99.99
2017-08-06T00:31:01.817Z,99.99
2017-08-06T00:32:12.366Z,99.99
2017-08-06T00:33:22.652Z,99.99
2017-08-06T00:34:32.932Z,99.99
2017-08-06T00:35:43.223Z,99.99
2017-08-06T00:36:53.194Z,99.99
2017-08-06T00:38:03.724Z,99.99
2017-08-06T00:39:14.015Z,99.99
2017-08-06T00:40:23.979Z,99.99
2017-08-06T00:41:34.268Z,99.99
2017-08-06T00:42:44.223Z,99.99
2017-08-06T00:43:54.452Z,99.99
2017-08-06T00:45:04.123Z,99.99
2017-08-06T00:46:14.425Z,99.99
2017-08-06T00:47:24.712Z,99.99
2017-08-06T00:48:35.009Z,99.99
2017-08-06T00:49:45.225Z,99.99
2017-08-06T00:50:55.504Z,99.99
2017-08-06T00:52:05.478Z,99.99
2017-08-06T00:53:15.761Z,99.99
2017-08-06T00:54:26.058Z,99.99
2017-08-06T00:55:36.583Z,99.99
2017-08-06T00:56:46.880Z,99.99
2017-08-06T00:57:56.847Z,99.99
2017-08-06T00:59:06.497Z,99.99
2017-08-06T01:00:16.774Z,99.99
2017-08-06T01:01:26.692Z,99.99
2017-08-06T01:02:36.986Z,99.99
2017-08-06T01:03:46.964Z,99.99
2017-08-06T01:04:56.925Z,99.99
2017-08-06T01:06:06.914Z,99.99
2017-08-06T01:07:16.822Z,99.99
2017-08-06T01:08:27.090Z,99.99
2017-08-06T01:09:36.753Z,99.99
2017-08-06T01:10:46.723Z,99.99
2017-08-06T01:11:57.022Z,99.99
2017-08-06T01:13:07.231Z,99.99
2017-08-06T01:14:17.526Z,99.99
2017-08-06T01:15:27.802Z,99.99
2017-08-06T01:16:38.069Z,99.99
2017-08-06T01:17:47.719Z,99.99
2017-08-06T01:18:57.936Z,99.99
2017-08-06T01:20:08.207Z,99.99
2017-08-06T01:21:18.185Z,99.99
2017-08-06T01:22:28.468Z,99.99
2017-08-06T01:23:38.433Z,99.99
2017-08-06T01:24:48.950Z,99.99
2017-08-06T01:25:58.626Z,99.99
2017-08-06T01:27:08.906Z,99.99
2017-08-06T01:28:19.197Z,99.99
2017-08-06T01:29:29.462Z,99.99
2017-08-06T01:30:39.981Z,99.99
2017-08-06T01:31:49.938Z,99.99
2017-08-06T01:33:00.227Z,99.99
2017-08-06T01:34:10.198Z,99.99
2017-08-06T01:35:20.474Z,99.99
2017-08-06T01:36:30.988Z,99.99
2017-08-06T01:37:40.953Z,99.99
2017-08-06T01:38:50.913Z,99.99
2017-08-06T01:40:01.187Z,99.99
2017-08-06T01:41:11.458Z,99.99
2017-08-06T01:42:21.687Z,99.99
2017-08-06T01:43:31.958Z,99.99
2017-08-06T01:44:42.239Z,99.99
2017-08-06T01:45:52.212Z,99.99
2017-08-06T01:47:02.503Z,99.99
2017-08-06T01:48:12.720Z,99.99
2017-08-06T01:49:22.985Z,99.99
2017-08-06T01:50:33.266Z,99.99
2017-08-06T01:51:43.237Z,99.99
2017-08-06T01:52:53.525Z,99.99
2017-08-06T01:54:04.039Z,99.99
2017-08-06T01:55:14.325Z,99.99
2017-08-06T01:56:24.613Z,99.99
2017-08-06T01:57:34.885Z,99.99
2017-08-06T01:58:45.145Z,99.99
2017-08-06T01:59:55.695Z,99.99
2017-08-06T02:01:05.978Z,99.99
2017-08-06T02:02:16.262Z,99.99
2017-08-06T02:03:26.239Z,99.99
2017-08-06T02:04:36.214Z,99.99
2017-08-06T02:05:46.744Z,99.99
2017-08-06T02:06:57.030Z,99.99
2017-08-06T02:08:07.021Z,99.99
2017-08-06T02:09:16.690Z,99.99
2017-08-06T02:10:26.974Z,99.99
2017-08-06T02:11:37.503Z,99.99
2017-08-06T02:12:47.486Z,99.99
2017-08-06T02:13:57.783Z,99.99
2017-08-06T02:15:08.053Z,99.99
2017-08-06T02:16:18.331Z,99.99
2017-08-06T02:17:28.548Z,99.99
2017-08-06T02:18:38.224Z,99.99
2017-08-06T02:19:48.201Z,99.99
2017-08-06T02:20:58.189Z,99.99
2017-08-06T02:22:08.471Z,99.99
2017-08-06T02:23:19.021Z,99.99
2017-08-06T02:24:29.314Z,99.99
2017-08-06T02:25:39.283Z,99.99
2017-08-06T02:26:49.573Z,99.99
2017-08-06T02:27:59.548Z,99.99
2017-08-06T02:29:10.083Z,99.99
2017-08-06T02:30:20.053Z,99.99
2017-08-06T02:31:30.028Z,99.99
2017-08-06T02:32:40.304Z,99.99
2017-08-06T02:33:49.982Z,99.99
2017-08-06T02:35:00.515Z,99.99
2017-08-06T02:36:10.493Z,99.99
2017-08-06T02:37:20.772Z,99.99
2017-08-06T02:38:30.441Z,99.99
2017-08-06T02:39:40.408Z,99.99
2017-08-06T02:40:50.325Z,99.99
2017-08-06T02:42:00.600Z,99.99
2017-08-06T02:43:10.894Z,99.99
2017-08-06T02:44:21.171Z,99.99
2017-08-06T02:45:31.450Z,99.99
2017-08-06T02:46:41.669Z,99.99
2017-08-06T02:47:51.640Z,99.99
2017-08-06T02:49:01.921Z,99.99
2017-08-06T02:50:11.904Z,99.99
2017-08-06T02:51:21.258Z,99.99
2017-08-06T02:52:31.837Z,99.99
2017-08-06T02:53:42.120Z,99.99
2017-08-06T02:54:52.398Z,99.99
2017-08-06T02:56:02.682Z,99.99
2017-08-06T02:57:12.956Z,99.99
2017-08-06T02:58:23.227Z,99.99
2017-08-06T02:59:32.877Z,99.99
2017-08-06T03:00:43.158Z,99.99
2017-08-06T03:01:53.434Z,99.99
2017-08-06T03:03:03.096Z,99.99
2017-08-06T03:04:13.429Z,99.99
2017-08-06T03:05:23.732Z,99.99
2017-08-06T03:06:34.026Z,99.99
2017-08-06T03:07:44.309Z,99.99
2017-08-06T03:08:54.265Z,99.99
2017-08-06T03:10:04.178Z,99.99
2017-08-06T03:11:14.464Z,99.99
2017-08-06T03:12:24.757Z,99.99
2017-08-06T03:13:35.055Z,99.99
2017-08-06T03:14:45.011Z,99.99
2017-08-06T03:15:55.586Z,99.99
2017-08-06T03:17:05.539Z,99.99
2017-08-06T03:18:15.507Z,99.99
2017-08-06T03:19:25.803Z,99.99
2017-08-06T03:20:36.081Z,99.99
2017-08-06T03:21:46.316Z,99.99
2017-08-06T03:22:56.602Z,99.99
2017-08-06T03:24:06.892Z,99.99
2017-08-06T03:25:16.861Z,99.99
2017-08-06T03:26:26.825Z,99.99
2017-08-06T03:27:37.404Z,99.99
2017-08-06T03:28:47.716Z,99.99
2017-08-06T03:29:57.997Z,99.99
2017-08-06T03:31:07.679Z,99.99
2017-08-06T03:32:17.644Z,99.99
2017-08-06T03:33:28.203Z,99.99
2017-08-06T03:34:38.170Z,99.99
2017-08-06T03:35:48.152Z,99.99
2017-08-06T03:36:57.808Z,99.99
2017-08-06T03:38:07.775Z,99.99
2017-08-06T03:39:18.360Z,99.99
2017-08-06T03:40:28.727Z,99.99
2017-08-06T03:41:39.018Z,99.99
2017-08-06T03:42:49.297Z,99.99
2017-08-06T03:43:58.954Z,99.99
2017-08-06T03:45:09.472Z,99.99
2017-08-06T03:46:19.737Z,99.99
2017-08-06T03:47:30.001Z,99.99
2017-08-06T03:48:40.283Z,99.99
2017-08-06T03:49:50.248Z,99.99
2017-08-06T03:51:00.522Z,99.99
2017-08-06T03:52:10.791Z,99.99
2017-08-06T03:53:21.075Z,99.99
2017-08-06T03:54:30.726Z,99.99
2017-08-06T03:55:40.998Z,99.99
2017-08-06T03:56:51.585Z,99.99
2017-08-06T03:58:01.858Z,99.99
2017-08-06T03:59:12.136Z,99.99
2017-08-06T04:00:21.797Z,99.99
2017-08-06T04:01:31.760Z,99.99
2017-08-06T04:02:42.335Z,99.99
2017-08-06T04:03:52.322Z,99.99
2017-08-06T04:05:02.305Z,99.99
2017-08-06T04:06:12.268Z,99.99
2017-08-06T04:07:22.541Z,99.99
2017-08-06T04:08:32.809Z,99.99
2017-08-06T04:09:42.759Z,99.99
2017-08-06T04:10:53.041Z,99.99
2017-08-06T04:12:03.015Z,99.99
2017-08-06T04:13:12.985Z,99.99
2017-08-06T04:14:23.558Z,99.99
2017-08-06T04:15:33.833Z,99.99
2017-08-06T04:16:44.099Z,99.99
2017-08-06T04:17:54.370Z,99.99
2017-08-06T04:19:04.640Z,99.99
2017-08-06T04:20:15.169Z,99.99
2017-08-06T04:21:25.150Z,99.99
2017-08-06T04:22:35.418Z,99.99
2017-08-06T04:23:45.707Z,99.99
2017-08-06T04:24:55.672Z,99.99
2017-08-06T04:26:06.202Z,99.99
2017-08-06T04:27:16.489Z,99.99
2017-08-06T04:28:26.752Z,99.99
2017-08-06T04:29:37.024Z,99.99
2017-08-06T04:30:47.000Z,99.99
2017-08-06T04:31:57.653Z,99.99
2017-08-06T04:33:07.321Z,99.99
2017-08-06T04:34:17.302Z,99.99
2017-08-06T04:35:26.959Z,99.99
2017-08-06T04:36:37.264Z,99.99
2017-08-06T04:37:47.798Z,99.99
2017-08-06T04:38:57.781Z,99.99
2017-08-06T04:40:08.068Z,99.99
2017-08-06T04:41:18.343Z,99.99
2017-08-06T04:42:28.332Z,99.99
2017-08-06T04:43:38.612Z,99.99
2017-08-06T04:44:48.905Z,99.99
2017-08-06T04:45:59.171Z,99.99
2017-08-06T04:47:09.154Z,99.99
2017-08-06T04:48:19.437Z,99.99
2017-08-06T04:49:29.945Z,99.99
2017-08-06T04:50:39.582Z,99.99
2017-08-06T04:51:49.863Z,99.99
2017-08-06T04:52:59.507Z,99.99
2017-08-06T04:54:09.788Z,99.99
2017-08-06T04:55:19.733Z,99.99
2017-08-06T04:56:29.705Z,99.99
2017-08-06T04:57:39.976Z,99.99
2017-08-06T04:58:49.943Z,99.99
2017-08-06T05:00:00.221Z,99.99
2017-08-06T05:01:10.129Z,99.99
2017-08-06T05:02:20.398Z,99.99
2017-08-06T05:03:30.363Z,99.99
2017-08-06T05:04:40.351Z,99.99
2017-08-06T05:05:50.612Z,99.99
2017-08-06T05:07:01.197Z,99.99
2017-08-06T05:08:11.158Z,99.99
2017-08-06T05:09:21.436Z,99.99
2017-08-06T05:10:31.417Z,99.99
2017-08-06T05:11:41.374Z,99.99
2017-08-06T05:12:51.951Z,99.99
2017-08-06T05:14:02.210Z,99.99
2017-08-06T05:15:12.175Z,99.99
2017-08-06T05:16:22.456Z,99.99
2017-08-06T05:17:32.416Z,99.99
2017-08-06T05:18:43.130Z,99.76
2017-08-06T05:19:53.397Z,98.61
2017-08-06T05:21:03.686Z,97.75
2017-08-06T05:22:13.975Z,98.14
2017-08-06T05:23:23.945Z,98.81
2017-08-06T05:24:34.175Z,98.14
2017-08-06T05:25:44.455Z,97.37
2017-08-06T05:26:54.739Z,97.47
2017-08-06T05:28:04.710Z,97.28
2017-08-06T05:29:15.016Z,97.08
2017-08-06T05:30:24.931Z,96.61
2017-08-06T05:31:35.226Z,96.51
2017-08-06T05:32:45.194Z,95.56
2017-08-06T05:33:55.475Z,96.03
2017-08-06T05:35:05.446Z,95.17
2017-08-06T05:36:16.014Z,95.41
2017-08-06T05:37:25.686Z,95.56
2017-08-06T05:38:35.969Z,95.41
2017-08-06T05:39:46.258Z,95.7
2017-08-06T05:40:56.547Z,94.74
2017-08-06T05:42:07.142Z,95.31
2017-08-06T05:43:17.103Z,95.31
2017-08-06T05:44:27.373Z,95.61
2017-08-06T05:45:37.635Z,95.41
2017-08-06T05:46:47.616Z,95.61
2017-08-06T05:47:57.834Z,95.31
2017-08-06T05:49:07.799Z,93.88
2017-08-06T05:50:17.784Z,94.17
2017-08-06T05:51:28.065Z,93.69
2017-08-06T05:52:38.025Z,94.74
2017-08-06T05:53:48.366Z,94.36
2017-08-06T05:54:58.644Z,94.45
2017-08-06T05:56:08.924Z,93.88
2017-08-06T05:57:19.219Z,93.79
2017-08-06T05:58:28.881Z,94.65
2017-08-06T05:59:39.464Z,94.36
2017-08-06T06:00:49.429Z,93.12
2017-08-06T06:01:59.716Z,93.4
2017-08-06T06:03:09.680Z,93.79
2017-08-06T06:04:19.955Z,92.92
2017-08-06T06:05:30.479Z,91.97
2017-08-06T06:06:40.455Z,92.01
2017-08-06T06:07:50.413Z,91.25
2017-08-06T06:09:00.698Z,90.39
2017-08-06T06:10:10.971Z,90.77
2017-08-06T06:11:21.553Z,91.25
2017-08-06T06:12:31.829Z,90.77
2017-08-06T06:13:41.800Z,88.85
2017-08-06T06:14:52.092Z,90.67
2017-08-06T06:16:02.072Z,90.96
2017-08-06T06:17:12.636Z,90.86
2017-08-06T06:18:22.914Z,90.77
2017-08-06T06:19:33.188Z,90.96
2017-08-06T06:20:43.169Z,90.67
2017-08-06T06:21:53.450Z,89.81
2017-08-06T06:23:03.976Z,90.67
2017-08-06T06:24:13.947Z,90
2017-08-06T06:25:24.243Z,90.48
2017-08-06T06:26:34.213Z,89.23
2017-08-06T06:27:44.481Z,89.43
2017-08-06T06:28:55.020Z,89.04
2017-08-06T06:30:05.008Z,89.14
2017-08-06T06:31:14.991Z,90.19
2017-08-06T06:32:25.269Z,89.14
2017-08-06T06:33:35.555Z,90
2017-08-06T06:34:46.090Z,89.14
2017-08-06T06:35:56.068Z,90.39
2017-08-06T06:37:06.354Z,90.29
2017-08-06T06:38:16.656Z,90.86
2017-08-06T06:39:26.315Z,89.9
2017-08-06T06:40:36.909Z,89.86
2017-08-06T06:41:46.872Z,90.19
2017-08-06T06:42:57.155Z,90.96
2017-08-06T06:44:07.456Z,88.99
2017-08-06T06:45:17.420Z,88.8
2017-08-06T06:46:27.950Z,88.8
2017-08-06T06:47:38.243Z,88.51
2017-08-06T06:48:48.215Z,88.13
2017-08-06T06:49:58.181Z,88.7
2017-08-06T06:51:08.443Z,88.7
2017-08-06T06:52:18.977Z,89.09
2017-08-06T06:53:29.275Z,87.65
2017-08-06T06:54:39.556Z,87.94
2017-08-06T06:55:49.831Z,88.99
2017-08-06T06:56:59.863Z,88.8
2017-08-06T06:58:10.391Z,88.61
2017-08-06T06:59:20.665Z,87.94
2017-08-06T07:00:30.938Z,87.65
2017-08-06T07:01:40.901Z,87.94
2017-08-06T07:02:50.569Z,87.08
2017-08-06T07:04:00.819Z,87.46
2017-08-06T07:05:11.098Z,87.94
2017-08-06T07:06:21.057Z,88.51
2017-08-06T07:07:31.061Z,87.94
2017-08-06T07:08:41.330Z,87.27
2017-08-06T07:09:51.859Z,87.94
2017-08-06T07:11:02.132Z,86.6
2017-08-06T07:12:12.401Z,86.5
2017-08-06T07:13:22.066Z,86.69
2017-08-06T07:14:32.345Z,86.02
2017-08-06T07:15:42.298Z,86.6
2017-08-06T07:16:52.599Z,87.27
2017-08-06T07:18:02.276Z,87.46
2017-08-06T07:19:12.554Z,86.6
2017-08-06T07:20:22.825Z,86.69
2017-08-06T07:21:33.384Z,86.88
2017-08-06T07:22:43.063Z,86.69
2017-08-06T07:23:53.020Z,85.68
2017-08-06T07:25:03.306Z,85.64
2017-08-06T07:26:13.280Z,85.64
2017-08-06T07:27:23.864Z,85.06
2017-08-06T07:28:33.206Z,85.06
2017-08-06T07:29:43.163Z,84.63
2017-08-06T07:30:53.434Z,84.44
2017-08-06T07:32:03.406Z,84.44
2017-08-06T07:33:13.953Z,84.05
2017-08-06T07:34:23.933Z,84.25
2017-08-06T07:35:33.598Z,82.62
2017-08-06T07:36:43.572Z,82.42
2017-08-06T07:37:53.861Z,81.37
2017-08-06T07:39:04.126Z,79.93
2017-08-06T07:40:14.416Z,80.12
2017-08-06T07:41:24.068Z,81.46
2017-08-06T07:42:34.033Z,81.08
2017-08-06T07:43:43.985Z,81.08
2017-08-06T07:44:54.219Z,80.45
2017-08-06T07:46:04.520Z,80.16
2017-08-06T07:47:14.513Z,79.59
2017-08-06T07:48:24.817Z,78.25
2017-08-06T07:49:35.086Z,79.78
2017-08-06T07:50:45.604Z,79.39
2017-08-06T07:51:55.587Z,79.01
2017-08-06T07:53:05.854Z,79.59
2017-08-06T07:54:15.818Z,77.67
2017-08-06T07:55:25.798Z,77.29
2017-08-06T07:56:36.329Z,77
2017-08-06T07:57:46.621Z,78.15
2017-08-06T07:58:56.908Z,78.53
2017-08-06T08:00:06.892Z,77.38
2017-08-06T08:01:17.183Z,77
2017-08-06T08:02:27.765Z,77
2017-08-06T08:03:37.745Z,76.52
2017-08-06T08:04:48.021Z,77.09
2017-08-06T08:05:58.298Z,77
2017-08-06T08:07:08.284Z,77.09
2017-08-06T08:08:18.828Z,77.29
2017-08-06T08:09:28.796Z,77
2017-08-06T08:10:39.073Z,77.19
2017-08-06T08:11:49.343Z,76.52
2017-08-06T08:12:59.632Z,76.62
2017-08-06T08:14:10.164Z,77
2017-08-06T08:15:20.461Z,75.6
2017-08-06T08:16:30.720Z,76.14
2017-08-06T08:17:40.985Z,76.62
2017-08-06T08:18:51.258Z,76.42
2017-08-06T08:20:01.831Z,76.42
2017-08-06T08:21:12.106Z,75.85
2017-08-06T08:22:22.381Z,76.17
2017-08-06T08:23:32.343Z,76.04
2017-08-06T08:24:42.322Z,76.37
2017-08-06T08:25:52.874Z,76.17
2017-08-06T08:27:03.164Z,76.07
2017-08-06T08:28:12.817Z,75.6
2017-08-06T08:29:23.088Z,75.6
2017-08-06T08:30:33.395Z,75.15
2017-08-06T08:31:43.973Z,74.58
2017-08-06T08:32:53.947Z,74.44
2017-08-06T08:34:04.220Z,74.39
2017-08-06T08:35:14.506Z,72.75
2017-08-06T08:36:24.781Z,72.66
2017-08-06T08:37:35.369Z,72.56
2017-08-06T08:38:45.656Z,73.91
2017-08-06T08:39:55.957Z,73.72
2017-08-06T08:41:06.227Z,72.79
2017-08-06T08:42:16.514Z,72.12
2017-08-06T08:43:26.748Z,71.58
2017-08-06T08:44:37.039Z,71.77
2017-08-06T08:45:47.020Z,71.58
2017-08-06T08:46:57.289Z,71.35
2017-08-06T08:48:07.584Z,70.68
2017-08-06T08:49:18.171Z,70.62
2017-08-06T08:50:28.447Z,69.56
2017-08-06T08:51:38.443Z,68.41
2017-08-06T08:52:48.728Z,68.89
2017-08-06T08:53:59.013Z,68.51
2017-08-06T08:55:09.235Z,69.08
2017-08-06T08:56:19.215Z,66.42
2017-08-06T08:57:28.883Z,66.77
2017-08-06T08:58:38.863Z,66.77
2017-08-06T08:59:48.831Z,66.52
2017-08-06T09:00:59.141Z,66.61
2017-08-06T09:02:09.459Z,66.61
2017-08-06T09:03:19.132Z,67.29
2017-08-06T09:04:29.458Z,66.61
2017-08-06T09:05:39.741Z,66.81
2017-08-06T09:06:50.334Z,66.61
2017-08-06T09:08:00.016Z,66.07
2017-08-06T09:09:10.305Z,65.69
2017-08-06T09:10:20.611Z,65.01
2017-08-06T09:11:30.916Z,65.69
2017-08-06T09:12:41.196Z,65.4
2017-08-06T09:13:50.908Z,65.5
2017-08-06T09:15:00.560Z,65.97
2017-08-06T09:16:10.825Z,64.56
2017-08-06T09:17:21.123Z,64.76
2017-08-06T09:18:31.350Z,65.2
2017-08-06T09:19:41.008Z,65.5
2017-08-06T09:20:51.295Z,65.78
2017-08-06T09:22:01.275Z,65.97
2017-08-06T09:23:11.560Z,66.74
2017-08-06T09:24:22.300Z,66.61
2017-08-06T09:25:32.272Z,65.97
2017-08-06T09:26:42.273Z,65.78
2017-08-06T09:27:52.543Z,64.76
2017-08-06T09:29:02.556Z,64.56
2017-08-06T09:30:12.793Z,64.59
2017-08-06T09:31:23.072Z,63.99
2017-08-06T09:32:33.349Z,63.99
2017-08-06T09:33:43.649Z,63.6
2017-08-06T09:34:53.937Z,63.7
2017-08-06T09:36:04.177Z,62.9
2017-08-06T09:37:14.155Z,63.95
2017-08-06T09:38:24.455Z,64.34
2017-08-06T09:39:34.457Z,64.43
2017-08-06T09:40:44.437Z,64.43
2017-08-06T09:41:55.022Z,63.95
2017-08-06T09:43:05.327Z,64.15
2017-08-06T09:44:15.621Z,63.86
2017-08-06T09:45:25.614Z,63.38
2017-08-06T09:46:35.907Z,63.41
2017-08-06T09:47:46.442Z,62.26
2017-08-06T09:48:56.420Z,62.77
2017-08-06T09:50:06.713Z,61.16
2017-08-06T09:51:16.687Z,61.35
2017-08-06T09:52:26.967Z,61.52
2017-08-06T09:53:37.528Z,61.13
2017-08-06T09:54:47.500Z,60.42
2017-08-06T09:55:57.519Z,60.33
2017-08-06T09:57:07.169Z,59.69
2017-08-06T09:58:17.484Z,59.59
2017-08-06T09:59:27.708Z,59.4
2017-08-06T10:00:38.015Z,60.55
2017-08-06T10:01:47.982Z,61.13
2017-08-06T10:02:58.259Z,61.13
2017-08-06T10:04:08.538Z,61.8
2017-08-06T10:05:19.094Z,62.38
2017-08-06T10:06:29.393Z,61.71
2017-08-06T10:07:39.681Z,60.87
2017-08-06T10:08:49.807Z,60.87
2017-08-06T10:10:00.089Z,60.68
2017-08-06T10:11:10.683Z,59.81
2017-08-06T10:12:20.991Z,60.2
2017-08-06T10:13:31.310Z,59.3
2017-08-06T10:14:41.321Z,59.3
2017-08-06T10:15:51.635Z,59.88
2017-08-06T10:17:02.195Z,60.07
2017-08-06T10:18:12.503Z,60.17
2017-08-06T10:19:22.480Z,59.33
2017-08-06T10:20:32.161Z,58.56
2017-08-06T10:21:42.468Z,60.2
2017-08-06T10:22:52.730Z,60.27
2017-08-06T10:24:03.027Z,60.75
2017-08-06T10:25:13.334Z,60.55
2017-08-06T10:26:23.319Z,61.49
2017-08-06T10:27:33.627Z,62.16
2017-08-06T10:28:43.874Z,62.13
2017-08-06T10:29:54.161Z,61.68
2017-08-06T10:31:04.450Z,60.72
2017-08-06T10:32:14.720Z,60.62
2017-08-06T10:33:24.689Z,59.78
2017-08-06T10:34:35.222Z,59.3
2017-08-06T10:35:45.200Z,60.27
2017-08-06T10:36:55.487Z,60.27
2017-08-06T10:38:05.458Z,60.17
2017-08-06T10:39:15.724Z,60.55
2017-08-06T10:40:26.269Z,59.88
2017-08-06T10:41:36.569Z,59.14
2017-08-06T10:42:46.877Z,59.43
2017-08-06T10:43:57.181Z,57.6
2017-08-06T10:45:07.471Z,57.14
2017-08-06T10:46:17.727Z,57.69
2017-08-06T10:47:28.028Z,57.5
2017-08-06T10:48:38.353Z,56.82
2017-08-06T10:49:48.347Z,57.21
2017-08-06T10:50:58.666Z,58.82
2017-08-06T10:52:09.211Z,59.3
2017-08-06T10:53:19.197Z,58.89
2017-08-06T10:54:29.482Z,59.56
2017-08-06T10:55:39.777Z,59.56
2017-08-06T10:56:49.752Z,57.86
2017-08-06T10:57:59.991Z,59.3
2017-08-06T10:59:10.262Z,57.28
2017-08-06T11:00:20.236Z,58.44
2017-08-06T11:01:30.218Z,58.44
2017-08-06T11:02:40.205Z,58.82
2017-08-06T11:03:50.457Z,59.49
2017-08-06T11:05:00.749Z,57.02
2017-08-06T11:06:11.045Z,56.92
2017-08-06T11:07:21.323Z,54.93
2017-08-06T11:08:31.624Z,54.57
2017-08-06T11:09:42.216Z,53.89
2017-08-06T11:10:52.184Z,53.92
2017-08-06T11:12:02.468Z,52.67
2017-08-06T11:13:12.455Z,53.03
2017-08-06T11:14:22.753Z,52.57
2017-08-06T11:15:33.351Z,51.7
2017-08-06T11:16:43.332Z,52.5
2017-08-06T11:17:53.305Z,52.59
2017-08-06T11:19:03.601Z,52.01
2017-08-06T11:20:13.908Z,50.69
2017-08-06T11:21:24.145Z,50.98
2017-08-06T11:22:34.438Z,50.76
2017-08-06T11:23:44.415Z,49.73
2017-08-06T11:24:54.097Z,49.73
2017-08-06T11:26:04.457Z,49.24
2017-08-06T11:27:15.007Z,49.55
2017-08-06T11:28:24.984Z,49.07
2017-08-06T11:29:35.285Z,50.01
2017-08-06T11:30:45.260Z,50.5
2017-08-06T11:31:55.584Z,51.73
2017-08-06T11:33:06.168Z,52.5
2017-08-06T11:34:16.466Z,53.15
2017-08-06T11:35:26.764Z,53.34
2017-08-06T11:36:37.062Z,54.66
2017-08-06T11:37:47.353Z,54.96
2017-08-06T11:38:57.895Z,54.28
2017-08-06T11:40:07.880Z,53.89
2017-08-06T11:41:18.185Z,54.28
2017-08-06T11:42:28.474Z,53.05
2017-08-06T11:43:38.454Z,53.15
2017-08-06T11:44:48.998Z,53.99
2017-08-06T11:45:58.345Z,53.89
2017-08-06T11:47:08.625Z,54.38
2017-08-06T11:48:18.638Z,53.99
2017-08-06T11:49:28.952Z,54.21
2017-08-06T11:50:39.486Z,52.09
2017-08-06T11:51:49.166Z,51.73
2017-08-06T11:52:59.472Z,51.34
2017-08-06T11:54:09.777Z,51.92
2017-08-06T11:55:19.747Z,52.43
2017-08-06T11:56:30.305Z,51.44
2017-08-06T11:57:40.618Z,50.67
2017-08-06T11:58:50.604Z,50.18
2017-08-06T12:00:00.585Z,51.7
2017-08-06T12:01:10.889Z,53.13
2017-08-06T12:02:21.427Z,53.39
2017-08-06T12:03:31.399Z,53.39
2017-08-06T12:04:41.373Z,53.87
2017-08-06T12:05:51.669Z,53.67
2017-08-06T12:07:01.644Z,54.25
2017-08-06T12:08:11.865Z,54.16
2017-08-06T12:09:21.538Z,53.03
2017-08-06T12:10:31.822Z,49.77
2017-08-06T12:11:42.114Z,50.64
2017-08-06T12:12:52.435Z,49.87
2017-08-06T12:14:03.005Z,49.7
2017-08-06T12:15:13.290Z,48.54
2017-08-06T12:16:23.576Z,48.74
2017-08-06T12:17:33.264Z,48.66
2017-08-06T12:18:43.239Z,48.37
2017-08-06T12:19:53.780Z,47.8
2017-08-06T12:21:03.757Z,47.72
2017-08-06T12:22:13.738Z,48.11
2017-08-06T12:23:24.034Z,49.53
2017-08-06T12:24:34.348Z,50.09
2017-08-06T12:25:44.586Z,50.86
2017-08-06T12:26:54.879Z,50.38
2017-08-06T12:28:05.176Z,50.67
2017-08-06T12:29:15.475Z,51.34
2017-08-06T12:30:25.779Z,50.18
2017-08-06T12:31:36.331Z,49.82
2017-08-06T12:32:46.625Z,48.37
2017-08-06T12:33:56.637Z,48.21
2017-08-06T12:35:06.613Z,47.74
2017-08-06T12:36:16.910Z,43.9
2017-08-06T12:37:27.538Z,43.82
2017-08-06T12:38:37.523Z,43.24
2017-08-06T12:39:47.850Z,43.73
2017-08-06T12:40:57.830Z,43.63
2017-08-06T12:42:07.811Z,44.04
2017-08-06T12:43:18.366Z,43.95
2017-08-06T12:44:28.349Z,43.55
2017-08-06T12:45:38.662Z,42.9
2017-08-06T12:46:48.995Z,43
2017-08-06T12:47:59.328Z,42.05
2017-08-06T12:49:09.936Z,40.83
2017-08-06T12:50:20.223Z,42.19
2017-08-06T12:51:30.216Z,42.55
2017-08-06T12:52:39.916Z,42.8
2017-08-06T12:53:49.905Z,43.15
2017-08-06T12:55:00.498Z,44.48
2017-08-06T12:56:10.810Z,44.29
2017-08-06T12:57:20.819Z,43.49
2017-08-06T12:58:30.795Z,43.98
2017-08-06T12:59:41.082Z,44.73
2017-08-06T13:00:50.989Z,43.98
2017-08-06T13:02:01.324Z,42.72
2017-08-06T13:03:11.640Z,42.45
2017-08-06T13:04:21.939Z,41.39
2017-08-06T13:05:32.221Z,41.58
2017-08-06T13:06:42.824Z,42.55
2017-08-06T13:07:53.098Z,42.45
2017-08-06T13:09:03.091Z,41.94
2017-08-06T13:10:13.375Z,42.25
2017-08-06T13:11:23.680Z,41.6
2017-08-06T13:12:33.968Z,40.94
2017-08-06T13:13:44.274Z,40.58
2017-08-06T13:14:54.579Z,40.28
2017-08-06T13:16:04.868Z,40.59
2017-08-06T13:17:15.165Z,40.31
2017-08-06T13:18:25.754Z,38.78
2017-08-06T13:19:36.056Z,39.36
2017-08-06T13:20:46.042Z,39.94
2017-08-06T13:21:56.042Z,40.33
2017-08-06T13:23:06.341Z,39.16
2017-08-06T13:24:16.928Z,38.4
2017-08-06T13:25:27.221Z,37.43
2017-08-06T13:26:37.519Z,38.27
2017-08-06T13:27:47.828Z,38.25
2017-08-06T13:28:57.793Z,39.32
2017-08-06T13:30:08.453Z,40.46
2017-08-06T13:31:18.433Z,41.7
2017-08-06T13:32:28.746Z,41.21
2017-08-06T13:33:39.057Z,41.7
2017-08-06T13:34:49.367Z,42.45
2017-08-06T13:35:59.306Z,43.13
2017-08-06T13:37:09.609Z,43.03
2017-08-06T13:38:19.916Z,44.36
2017-08-06T13:39:30.222Z,44.84
2017-08-06T13:40:40.513Z,44.36
2017-08-06T13:41:50.438Z,44.53
2017-08-06T13:43:00.752Z,45.21
2017-08-06T13:44:11.055Z,44.92
2017-08-06T13:45:21.353Z,43.47
2017-08-06T13:46:31.338Z,44.51
2017-08-06T13:47:41.868Z,45.75
2017-08-06T13:48:51.844Z,46.42
2017-08-06T13:50:02.140Z,46.81
2017-08-06T13:51:12.119Z,47.38
2017-08-06T13:52:22.420Z,47
2017-08-06T13:53:32.696Z,47
2017-08-06T13:54:42.980Z,47.27
2017-08-06T13:55:53.266Z,47.29
2017-08-06T13:57:03.552Z,47.65
2017-08-06T13:58:13.839Z,47.65
2017-08-06T13:59:24.415Z,47.75
2017-08-06T14:00:34.725Z,46.95
2017-08-06T14:01:45.007Z,47.63
2017-08-06T14:02:55.284Z,47.72
2017-08-06T14:04:05.582Z,48.69
2017-08-06T14:05:16.113Z,48.69
2017-08-06T14:06:26.087Z,48.21
2017-08-06T14:07:35.439Z,48.9
2017-08-06T14:08:45.440Z,48.61
2017-08-06T14:09:55.728Z,48.59
2017-08-06T14:11:06.311Z,48.69
2017-08-06T14:12:16.608Z,48.3
2017-08-06T14:13:26.909Z,48.42
2017-08-06T14:14:37.206Z,48.81
2017-08-06T14:15:47.173Z,48.03
2017-08-06T14:16:57.757Z,48.61
2017-08-06T14:18:08.054Z,47.67
2017-08-06T14:19:18.036Z,47.09
2017-08-06T14:20:28.012Z,45.48
2017-08-06T14:21:38.334Z,44.63
2017-08-06T14:22:48.918Z,43.57
2017-08-06T14:23:59.210Z,42.25
2017-08-06T14:25:09.222Z,41.97
2017-08-06T14:26:19.505Z,41.99
2017-08-06T14:27:29.485Z,40.34
2017-08-06T14:28:39.741Z,40.56
2017-08-06T14:29:50.045Z,39.57
2017-08-06T14:31:00.321Z,40.26
2017-08-06T14:32:10.305Z,39.86
2017-08-06T14:33:20.318Z,40.25
2017-08-06T14:34:30.554Z,39.78
2017-08-06T14:35:40.842Z,39.01
2017-08-06T14:36:51.143Z,39.39
2017-08-06T14:38:00.810Z,39.47
2017-08-06T14:39:10.783Z,39.57
2017-08-06T14:40:20.767Z,39.84
2017-08-06T14:41:31.078Z,40.32
2017-08-06T14:42:41.065Z,41.39
2017-08-06T14:43:51.342Z,40.11
2017-08-06T14:45:01.323Z,40.03
2017-08-06T14:46:11.885Z,40.52
2017-08-06T14:47:22.229Z,39.86
2017-08-06T14:48:32.537Z,39.28
2017-08-06T14:49:42.853Z,39.03
2017-08-06T14:50:53.155Z,39.61
2017-08-06T14:52:03.771Z,37.79
2017-08-06T14:53:13.736Z,38.54
2017-08-06T14:54:24.041Z,39.29
2017-08-06T14:55:34.331Z,39.37
2017-08-06T14:56:44.003Z,39.47
2017-08-06T14:57:54.237Z,39.78
2017-08-06T14:59:04.220Z,40.05
2017-08-06T15:00:14.544Z,40.53
2017-08-06T15:01:24.521Z,41.21
2017-08-06T15:02:34.827Z,39.78
2017-08-06T15:03:45.409Z,39.61
2017-08-06T15:04:55.709Z,39.32
2017-08-06T15:06:05.996Z,38.66
2017-08-06T15:07:16.298Z,37.41